Time;durP1;ratioP1;P1;durP2;ratioP2;P2;SDS_P1;SDS_P2;PMS_P1;PMS_P2;Temp;Humidity;BMP_temperature;BMP_pressure;BME280_temperature;BME280_humidity;BME280_pressure;Samples;Min_cycle;Max_cycle;Signal;HPM_P1;HPM_P2
2021/06/06 00:01:07;;;;;;;19.80;13.45;;;;;;;;;;5051287;28;20060;-76
2021/06/06 00:03:39;;;;;;;17.52;14.70;;;;;;;;;;5043459;28;20049;-76
2021/06/06 00:06:15;;;;;;;19.30;12.75;;;;;;;;;;5035916;28;20037;-75
2021/06/06 00:08:41;;;;;;;17.73;13.38;;;;;;;;;;5035930;28;20112;-75
2021/06/06 00:11:12;;;;;;;18.25;12.75;;;;;;;;;;5034565;28;20041;-78
2021/06/06 00:13:39;;;;;;;15.00;11.82;;;;;;;;;;5055661;28;20036;-78
2021/06/06 00:16:08;;;;;;;17.83;13.65;;;;;;;;;;5054139;28;20036;-75
2021/06/06 00:18:33;;;;;;;17.25;12.85;;;;;;;;;;5054914;28;20162;-76
2021/06/06 00:20:59;;;;;;;19.88;13.95;;;;;;;;;;5055711;28;20062;-75
2021/06/06 00:23:25;;;;;;;16.65;12.60;;;;;;;;;;5055341;28;20044;-75
2021/06/06 00:25:50;;;;;;;18.00;13.55;;;;;;;;;;5055154;28;20036;-76
2021/06/06 00:28:17;;;;;;;16.02;12.90;;;;;;;;;;5055145;28;20103;-76
2021/06/06 00:30:43;;;;;;;17.48;14.18;;;;;;;;;;5054877;28;20033;-78
2021/06/06 00:33:09;;;;;;;20.90;16.05;;;;;;;;;;5039818;28;20642;-75
2021/06/06 00:35:34;;;;;;;18.23;14.32;;;;;;;;;;5052716;28;20055;-75
2021/06/06 00:38:02;;;;;;;23.63;15.40;;;;;;;;;;5038258;28;20507;-76
2021/06/06 00:40:31;;;;;;;17.30;13.95;;;;;;;;;;5050064;28;20033;-75
2021/06/06 00:42:58;;;;;;;19.25;15.10;;;;;;;;;;5054903;28;20529;-76
2021/06/06 00:45:28;;;;;;;19.80;14.18;;;;;;;;;;5047331;28;20033;-76
2021/06/06 00:47:54;;;;;;;21.10;14.45;;;;;;;;;;5047042;28;20471;-76
2021/06/06 00:50:29;;;;;;;18.92;14.50;;;;;;;;;;5056649;28;20099;-76
2021/06/06 00:53:00;;;;;;;20.38;15.48;;;;;;;;;;5074935;28;20425;-76
2021/06/06 00:55:27;;;;;;;19.75;15.23;;;;;;;;;;5074920;28;20089;-75
2021/06/06 00:57:54;;;;;;;20.45;13.23;;;;;;;;;;5073397;28;20040;-76
2021/06/06 01:00:29;;;;;;;15.80;13.88;;;;;;;;;;5070269;28;20039;-75
2021/06/06 01:02:56;;;;;;;20.55;13.93;;;;;;;;;;5047552;28;20037;-75
2021/06/06 01:05:24;;;;;;;20.98;14.95;;;;;;;;;;5036895;28;20072;-75
2021/06/06 01:07:49;;;;;;;20.42;15.05;;;;;;;;;;5033385;28;20060;-75
2021/06/06 01:10:16;;;;;;;19.00;14.32;;;;;;;;;;5033865;28;20756;-76
2021/06/06 01:12:47;;;;;;;20.50;15.32;;;;;;;;;;5040710;28;20050;-75
2021/06/06 01:15:26;;;;;;;17.20;14.10;;;;;;;;;;5037961;28;20034;-75
2021/06/06 01:18:01;;;;;;;19.15;12.50;;;;;;;;;;5049928;28;20455;-76
2021/06/06 01:20:33;;;;;;;21.38;15.25;;;;;;;;;;5048831;28;20029;-77
2021/06/06 01:23:18;;;;;;;17.50;14.25;;;;;;;;;;5048778;28;20138;-75
2021/06/06 01:25:48;;;;;;;20.85;15.65;;;;;;;;;;5054108;28;20158;-75
2021/06/06 01:28:20;;;;;;;18.55;14.02;;;;;;;;;;5052656;28;20029;-76
2021/06/06 01:30:56;;;;;;;16.63;12.93;;;;;;;;;;5052621;28;20517;-75
2021/06/06 01:33:44;;;;;;;18.50;14.10;;;;;;;;;;5048043;28;20033;-75
2021/06/06 01:36:20;;;;;;;19.25;15.30;;;;;;;;;;5034601;28;20064;-76
2021/06/06 01:38:54;;;;;;;20.58;15.75;;;;;;;;;;5032816;28;20510;-75
2021/06/06 01:41:27;;;;;;;21.52;15.18;;;;;;;;;;5033165;28;20479;-76
2021/06/06 01:43:56;;;;;;;22.00;16.55;;;;;;;;;;5032542;28;20077;-76
2021/06/06 01:46:34;;;;;;;19.23;15.65;;;;;;;;;;5033890;28;20128;-76
2021/06/06 01:49:04;;;;;;;20.60;15.35;;;;;;;;;;5032766;28;20132;-76
2021/06/06 01:51:40;;;;;;;19.98;15.32;;;;;;;;;;5033572;28;20048;-76
2021/06/06 01:54:09;;;;;;;24.13;17.52;;;;;;;;;;5016339;28;20566;-75
2021/06/06 01:56:39;;;;;;;19.40;15.23;;;;;;;;;;5032609;28;20036;-76
2021/06/06 01:59:11;;;;;;;17.48;14.57;;;;;;;;;;5032416;28;20115;-76
2021/06/06 02:01:44;;;;;;;19.42;14.55;;;;;;;;;;5032308;28;20151;-77
2021/06/06 02:04:10;;;;;;;18.17;14.82;;;;;;;;;;5037747;28;20497;-76
2021/06/06 02:06:45;;;;;;;18.92;14.57;;;;;;;;;;5050459;28;20125;-76
2021/06/06 02:09:19;;;;;;;18.88;15.23;;;;;;;;;;5052437;28;20051;-76
2021/06/06 02:11:58;;;;;;;18.08;14.38;;;;;;;;;;5051817;28;20033;-78
2021/06/06 02:14:39;;;;;;;22.67;16.17;;;;;;;;;;5039176;28;20040;-77
2021/06/06 02:17:09;;;;;;;21.02;16.25;;;;;;;;;;5053391;28;20045;-77
2021/06/06 02:19:47;;;;;;;19.10;15.35;;;;;;;;;;5045879;28;20029;-76
2021/06/06 02:22:24;;;;;;;20.25;14.57;;;;;;;;;;5040750;28;20667;-76
2021/06/06 02:24:52;;;;;;;23.90;16.90;;;;;;;;;;5043233;28;20037;-76
2021/06/06 02:27:28;;;;;;;22.48;16.38;;;;;;;;;;5032021;28;20804;-76
2021/06/06 02:30:12;;;;;;;23.23;18.60;;;;;;;;;;5031879;28;20124;-76
2021/06/06 02:32:53;;;;;;;23.73;16.27;;;;;;;;;;5032896;28;20048;-76
2021/06/06 02:35:24;;;;;;;19.98;16.50;;;;;;;;;;5044392;28;20030;-76
2021/06/06 02:38:00;;;;;;;21.63;14.85;;;;;;;;;;5040745;28;20030;-76
2021/06/06 02:40:30;;;;;;;;;;;;;;;;;;5032663;28;20091;-76
2021/06/06 02:43:02;;;;;;;21.67;15.75;;;;;;;;;;5024706;28;20003;-76
2021/06/06 02:45:30;;;;;;;24.85;16.67;;;;;;;;;;5037710;28;20060;-76
2021/06/06 02:48:05;;;;;;;24.08;17.00;;;;;;;;;;5037404;28;20034;-76
2021/06/06 02:50:35;;;;;;;27.23;17.15;;;;;;;;;;5037651;28;20467;-76
2021/06/06 02:53:26;;;;;;;30.13;18.10;;;;;;;;;;5033063;28;20487;-76
2021/06/06 02:56:01;;;;;;;28.08;16.83;;;;;;;;;;5032140;28;20021;-76
2021/06/06 02:58:36;;;;;;;21.77;16.17;;;;;;;;;;5042137;28;20025;-76
2021/06/06 03:01:10;;;;;;;23.98;16.27;;;;;;;;;;5043916;28;20025;-76
2021/06/06 03:03:40;;;;;;;31.42;20.95;;;;;;;;;;5050051;28;20399;-76
2021/06/06 03:06:26;;;;;;;36.80;23.23;;;;;;;;;;5049665;28;20040;-76
2021/06/06 03:08:52;;;;;;;39.08;23.15;;;;;;;;;;5052671;28;20483;-76
2021/06/06 03:11:19;;;;;;;38.58;24.23;;;;;;;;;;5050367;28;20048;-76
2021/06/06 03:13:51;;;;;;;43.65;23.63;;;;;;;;;;5041131;28;20021;-76
2021/06/06 03:16:19;;;;;;;41.40;23.73;;;;;;;;;;5041418;28;20029;-76
2021/06/06 03:18:54;;;;;;;39.33;25.42;;;;;;;;;;5040353;28;20586;-76
2021/06/06 03:21:25;;;;;;;36.40;23.60;;;;;;;;;;5032583;28;20033;-76
2021/06/06 03:24:07;;;;;;;45.70;24.83;;;;;;;;;;5032646;28;20087;-76
2021/06/06 03:26:41;;;;;;;45.50;26.48;;;;;;;;;;5031197;28;20029;-76
2021/06/06 03:29:10;;;;;;;46.25;25.85;;;;;;;;;;5032516;28;20388;-76
2021/06/06 03:31:49;;;;;;;43.03;26.17;;;;;;;;;;5032648;28;20030;-76
2021/06/06 03:34:17;;;;;;;42.45;25.48;;;;;;;;;;5031312;28;20033;-76
2021/06/06 03:36:47;;;;;;;43.90;25.35;;;;;;;;;;5042111;28;20040;-76
2021/06/06 03:39:28;;;;;;;43.55;24.88;;;;;;;;;;5034282;28;20037;-76
2021/06/06 03:41:58;;;;;;;47.85;25.38;;;;;;;;;;5037463;28;20092;-76
2021/06/06 03:44:25;;;;;;;46.83;25.83;;;;;;;;;;5031214;28;20132;-76
2021/06/06 03:46:51;;;;;;;52.58;26.63;;;;;;;;;;5032354;28;20345;-76
2021/06/06 03:49:18;;;;;;;42.42;24.48;;;;;;;;;;5032239;28;20065;-76
2021/06/06 03:51:45;;;;;;;38.33;24.40;;;;;;;;;;5032592;28;20037;-76
2021/06/06 03:54:16;;;;;;;37.40;22.83;;;;;;;;;;5052087;28;20433;-76
2021/06/06 03:56:44;;;;;;;40.55;23.35;;;;;;;;;;5055888;28;20037;-76
2021/06/06 03:59:12;;;;;;;36.72;22.52;;;;;;;;;;5055549;28;20048;-76
2021/06/06 04:01:40;;;;;;;46.85;24.98;;;;;;;;;;5054723;28;20029;-76
2021/06/06 04:04:06;;;;;;;39.35;23.27;;;;;;;;;;5055892;28;20387;-76
2021/06/06 04:06:32;;;;;;;44.40;24.42;;;;;;;;;;5055584;28;20048;-76
2021/06/06 04:09:01;;;;;;;37.90;23.70;;;;;;;;;;5046620;28;20029;-76
2021/06/06 04:11:28;;;;;;;37.95;23.92;;;;;;;;;;5044760;28;20035;-75
2021/06/06 04:14:04;;;;;;;39.53;24.38;;;;;;;;;;5034466;28;20055;-76
2021/06/06 04:16:32;;;;;;;37.13;22.75;;;;;;;;;;5034368;28;20025;-76
2021/06/06 04:18:58;;;;;;;35.70;23.60;;;;;;;;;;5034473;28;20044;-76
2021/06/06 04:21:28;;;;;;;35.60;22.70;;;;;;;;;;5034128;28;20534;-76
2021/06/06 04:23:55;;;;;;;33.50;21.48;;;;;;;;;;5035124;28;20475;-76
2021/06/06 04:26:23;;;;;;;37.45;23.50;;;;;;;;;;5035413;28;20038;-76
2021/06/06 04:28:51;;;;;;;37.03;21.48;;;;;;;;;;5034096;28;20038;-76
2021/06/06 04:31:22;;;;;;;35.30;21.52;;;;;;;;;;5034245;28;20040;-76
2021/06/06 04:33:49;;;;;;;32.58;20.42;;;;;;;;;;5033772;28;20037;-76
2021/06/06 04:36:17;;;;;;;29.10;19.38;;;;;;;;;;5034001;28;20033;-76
2021/06/06 04:38:44;;;;;;;28.77;17.77;;;;;;;;;;5033567;28;20029;-76
2021/06/06 04:41:12;;;;;;;32.42;20.08;;;;;;;;;;5046465;28;20105;-75
2021/06/06 04:43:39;;;;;;;29.05;17.23;;;;;;;;;;5025691;28;20041;-76
2021/06/06 04:46:07;;;;;;;28.65;16.95;;;;;;;;;;5038862;28;20089;-76
2021/06/06 04:48:35;;;;;;;22.10;15.52;;;;;;;;;;5034930;28;20487;-76
2021/06/06 04:51:05;;;;;;;25.92;16.88;;;;;;;;;;5034902;28;20403;-76
2021/06/06 04:53:37;;;;;;;;;;;;;;;;;;5041343;28;20029;-76
2021/06/06 04:56:11;;;;;;;19.38;13.32;;;;;;;;;;5054647;28;19913;-76
2021/06/06 04:58:38;;;;;;;20.67;14.05;;;;;;;;;;5054647;28;20387;-76
2021/06/06 05:01:07;;;;;;;21.15;12.68;;;;;;;;;;5053488;28;20094;-76
2021/06/06 05:03:32;;;;;;;22.27;12.93;;;;;;;;;;5053120;28;20128;-76
2021/06/06 05:05:59;;;;;;;19.63;12.68;;;;;;;;;;5053763;28;20028;-76
2021/06/06 05:08:26;;;;;;;19.42;12.40;;;;;;;;;;5052434;28;20033;-76
2021/06/06 05:10:53;;;;;;;16.73;11.85;;;;;;;;;;5042409;28;20036;-76
2021/06/06 05:13:21;;;;;;;17.95;11.95;;;;;;;;;;5038783;28;20031;-75
2021/06/06 05:15:48;;;;;;;19.75;12.20;;;;;;;;;;5045009;28;20064;-76
2021/06/06 05:18:16;;;;;;;22.52;13.50;;;;;;;;;;5043344;28;20032;-76
2021/06/06 05:20:45;;;;;;;19.52;12.88;;;;;;;;;;5033603;28;20449;-76
2021/06/06 05:23:11;;;;;;;23.10;11.85;;;;;;;;;;5033027;28;20091;-76
2021/06/06 05:25:40;;;;;;;15.15;10.90;;;;;;;;;;5016625;28;20061;-76
2021/06/06 05:28:09;;;;;;;15.77;11.43;;;;;;;;;;5032971;28;20479;-76
2021/06/06 05:30:36;;;;;;;17.95;11.52;;;;;;;;;;5041461;28;20041;-76
2021/06/06 05:33:03;;;;;;;22.65;11.15;;;;;;;;;;5054280;28;20475;-76
2021/06/06 05:35:30;;;;;;;16.08;11.65;;;;;;;;;;5054276;28;20033;-76
2021/06/06 05:37:56;;;;;;;16.75;11.10;;;;;;;;;;5053922;28;20131;-76
2021/06/06 05:40:23;;;;;;;16.88;11.35;;;;;;;;;;5047579;28;20037;-76
2021/06/06 05:42:49;;;;;;;16.95;12.13;;;;;;;;;;5042688;28;20037;-76
2021/06/06 05:45:17;;;;;;;13.43;9.95;;;;;;;;;;5052417;28;20039;-77
2021/06/06 05:47:43;;;;;;;18.08;10.48;;;;;;;;;;5053405;28;20040;-76
2021/06/06 05:50:11;;;;;;;15.32;10.73;;;;;;;;;;5052735;28;20028;-76
2021/06/06 05:52:44;;;;;;;16.90;11.40;;;;;;;;;;5052604;28;20033;-76
2021/06/06 05:55:10;;;;;;;15.13;10.77;;;;;;;;;;5053549;28;20112;-76
2021/06/06 05:57:36;;;;;;;12.75;9.65;;;;;;;;;;5052984;28;20091;-76
2021/06/06 06:00:05;;;;;;;16.05;9.95;;;;;;;;;;5053477;28;20048;-76
2021/06/06 06:02:38;;;;;;;16.75;10.65;;;;;;;;;;5053705;28;20127;-76
2021/06/06 06:05:05;;;;;;;12.77;9.82;;;;;;;;;;5053456;28;20127;-76
2021/06/06 06:07:30;;;;;;;16.42;10.15;;;;;;;;;;5053293;28;20073;-76
2021/06/06 06:09:56;;;;;;;14.73;9.65;;;;;;;;;;5051938;28;20054;-76
2021/06/06 06:12:21;;;;;;;16.42;10.27;;;;;;;;;;5044315;28;20098;-76
2021/06/06 06:14:47;;;;;;;12.45;9.40;;;;;;;;;;5036057;28;20044;-76
2021/06/06 06:17:12;;;;;;;17.30;11.00;;;;;;;;;;5042227;28;20033;-76
2021/06/06 06:19:38;;;;;;;11.30;8.90;;;;;;;;;;5034931;28;20059;-79
2021/06/06 06:22:06;;;;;;;13.02;9.27;;;;;;;;;;5044196;28;20036;-79
2021/06/06 06:24:35;;;;;;;12.70;9.77;;;;;;;;;;5044658;28;20024;-79
2021/06/06 06:27:01;;;;;;;18.10;11.10;;;;;;;;;;5053536;28;20039;-79
2021/06/06 06:29:54;;;;;;;13.40;10.05;;;;;;;;;;5034551;28;20044;-76
2021/06/06 06:32:37;;;;;;;16.48;9.82;;;;;;;;;;5025736;28;20490;-77
2021/06/06 06:35:04;;;;;;;14.50;10.50;;;;;;;;;;5033419;28;20159;-76
2021/06/06 06:37:29;;;;;;;13.38;10.10;;;;;;;;;;5036599;28;20025;-77
2021/06/06 06:39:55;;;;;;;13.32;10.75;;;;;;;;;;5033687;28;20459;-77
2021/06/06 06:42:20;;;;;;;15.90;10.60;;;;;;;;;;5049976;28;20068;-78
2021/06/06 06:44:46;;;;;;;12.25;10.07;;;;;;;;;;5054812;28;20048;-76
2021/06/06 06:47:13;;;;;;;14.95;10.82;;;;;;;;;;5052865;28;20063;-78
2021/06/06 06:49:38;;;;;;;14.63;10.27;;;;;;;;;;5054680;28;20033;-77
2021/06/06 06:52:05;;;;;;;13.75;9.90;;;;;;;;;;5046083;28;20056;-77
2021/06/06 06:54:30;;;;;;;13.13;10.27;;;;;;;;;;5043236;28;20068;-76
2021/06/06 06:56:56;;;;;;;14.00;10.95;;;;;;;;;;5041653;28;20052;-77
2021/06/06 06:59:27;;;;;;;21.15;13.82;;;;;;;;;;5044645;28;20044;-78
2021/06/06 07:01:56;;;;;;;17.85;13.20;;;;;;;;;;5044103;28;20028;-79
2021/06/06 07:04:22;;;;;;;19.67;12.40;;;;;;;;;;5048576;28;20040;-78
2021/06/06 07:06:52;;;;;;;15.95;11.55;;;;;;;;;;5036049;28;20034;-77
2021/06/06 07:09:18;;;;;;;15.80;10.68;;;;;;;;;;5033813;28;20462;-77
2021/06/06 07:11:44;;;;;;;15.77;12.52;;;;;;;;;;5034293;28;20325;-77
2021/06/06 07:14:09;;;;;;;15.18;12.00;;;;;;;;;;5034705;28;20045;-76
2021/06/06 07:16:36;;;;;;;14.95;11.40;;;;;;;;;;5034842;28;20116;-76
2021/06/06 07:19:03;;;;;;;18.77;12.43;;;;;;;;;;5048136;28;20052;-77
2021/06/06 07:21:29;;;;;;;17.70;12.23;;;;;;;;;;5058160;28;20040;-77
2021/06/06 07:23:56;;;;;;;15.45;11.68;;;;;;;;;;5053386;28;20040;-77
2021/06/06 07:26:26;;;;;;;18.40;13.40;;;;;;;;;;5053514;28;20045;-75
2021/06/06 07:28:54;;;;;;;19.80;15.45;;;;;;;;;;5056731;28;20059;-77
2021/06/06 07:31:20;;;;;;;22.63;16.00;;;;;;;;;;5058275;28;20033;-76
2021/06/06 07:33:46;;;;;;;21.52;15.70;;;;;;;;;;5057636;28;20032;-77
2021/06/06 07:36:15;;;;;;;22.92;16.55;;;;;;;;;;5056877;28;20048;-76
2021/06/06 07:38:42;;;;;;;27.00;19.40;;;;;;;;;;5058289;28;20403;-79
2021/06/06 07:41:08;;;;;;;26.98;18.38;;;;;;;;;;5056847;28;20029;-76
2021/06/06 07:43:34;;;;;;;25.17;18.45;;;;;;;;;;5056201;28;20124;-76
2021/06/06 07:46:01;;;;;;;27.75;18.88;;;;;;;;;;5057149;28;20037;-79
2021/06/06 07:48:26;;;;;;;28.50;19.75;;;;;;;;;;5058133;28;20043;-75
2021/06/06 07:50:53;;;;;;;32.30;19.55;;;;;;;;;;5060861;28;20041;-79
2021/06/06 07:53:20;;;;;;;31.13;21.13;;;;;;;;;;5059039;28;20063;-77
2021/06/06 07:55:46;;;;;;;27.75;18.75;;;;;;;;;;5055027;28;20091;-77
2021/06/06 07:58:20;;;;;;;26.20;17.80;;;;;;;;;;5056187;28;20033;-77
2021/06/06 08:00:46;;;;;;;30.80;19.48;;;;;;;;;;5054904;28;20410;-76
2021/06/06 08:03:12;;;;;;;29.95;19.75;;;;;;;;;;5055921;28;20032;-76
2021/06/06 08:05:39;;;;;;;27.10;18.67;;;;;;;;;;5057990;28;20483;-76
2021/06/06 08:08:06;;;;;;;26.73;19.00;;;;;;;;;;5055046;28;20037;-76
2021/06/06 08:10:35;;;;;;;25.30;18.42;;;;;;;;;;5056419;28;20033;-75
2021/06/06 08:13:01;;;;;;;25.92;19.27;;;;;;;;;;5054679;28;20076;-75
2021/06/06 08:15:28;;;;;;;28.63;20.10;;;;;;;;;;5056101;28;20061;-76
2021/06/06 08:17:55;;;;;;;28.98;19.60;;;;;;;;;;5054948;28;20032;-77
2021/06/06 08:20:25;;;;;;;29.73;21.13;;;;;;;;;;5054642;28;20036;-77
2021/06/06 08:22:51;;;;;;;32.28;22.23;;;;;;;;;;5060466;28;20390;-77
2021/06/06 08:25:18;;;;;;;27.50;19.63;;;;;;;;;;5060821;28;20098;-78
2021/06/06 08:27:44;;;;;;;35.13;23.27;;;;;;;;;;5057675;28;20065;-77
2021/06/06 08:30:14;;;;;;;34.97;23.10;;;;;;;;;;5058930;28;20033;-76
2021/06/06 08:32:40;;;;;;;31.60;21.73;;;;;;;;;;5056223;28;20048;-77
2021/06/06 08:35:07;;;;;;;32.38;21.80;;;;;;;;;;5056263;28;20472;-77
2021/06/06 08:37:32;;;;;;;34.25;23.45;;;;;;;;;;5055855;28;20430;-76
2021/06/06 08:39:57;;;;;;;36.08;22.75;;;;;;;;;;5055492;28;20068;-77
2021/06/06 08:42:27;;;;;;;34.47;22.80;;;;;;;;;;5053517;28;20045;-77
2021/06/06 08:45:16;;;;;;;29.45;21.33;;;;;;;;;;5060574;28;20470;-77
2021/06/06 08:47:41;;;;;;;32.67;21.98;;;;;;;;;;5056621;28;20041;-77
2021/06/06 08:50:15;;;;;;;40.65;25.38;;;;;;;;;;5058763;28;20031;-77
2021/06/06 08:52:54;;;;;;;31.98;22.90;;;;;;;;;;5054157;28;20029;-77
2021/06/06 08:55:28;;;;;;;40.15;24.92;;;;;;;;;;5057655;28;20086;-77
2021/06/06 08:58:16;;;;;;;35.13;23.42;;;;;;;;;;5055308;28;20501;-76
2021/06/06 09:00:47;;;;;;;41.95;27.08;;;;;;;;;;5044318;28;20136;-77
2021/06/06 09:03:22;;;;;;;40.97;29.45;;;;;;;;;;5053780;28;20094;-76
2021/06/06 09:05:55;;;;;;;36.92;25.08;;;;;;;;;;5054908;28;20386;-76
2021/06/06 09:08:25;;;;;;;37.13;24.33;;;;;;;;;;5054763;28;20063;-77
2021/06/06 09:10:55;;;;;;;37.55;24.27;;;;;;;;;;5050054;28;20041;-78
2021/06/06 09:13:27;;;;;;;30.65;21.55;;;;;;;;;;5034834;28;20026;-77
2021/06/06 09:16:02;;;;;;;31.15;21.20;;;;;;;;;;5037432;28;20036;-77
2021/06/06 09:18:28;;;;;;;28.07;19.63;;;;;;;;;;5039570;28;20057;-78
2021/06/06 09:21:07;;;;;;;28.15;20.10;;;;;;;;;;5041493;28;20379;-78
2021/06/06 09:23:33;;;;;;;27.20;19.60;;;;;;;;;;5038175;28;20107;-78
2021/06/06 09:26:12;;;;;;;31.35;19.17;;;;;;;;;;5037707;28;20045;-77
2021/06/06 09:28:43;;;;;;;28.08;17.85;;;;;;;;;;5037527;28;20398;-77
2021/06/06 09:31:22;;;;;;;25.73;16.05;;;;;;;;;;5036298;28;20120;-78
2021/06/06 09:33:59;;;;;;;28.00;20.13;;;;;;;;;;5035702;28;20051;-78
2021/06/06 09:37:02;;;;;;;22.58;16.48;;;;;;;;;;5037195;28;20111;-80
2021/06/06 09:39:30;;;;;;;25.40;17.20;;;;;;;;;;5036276;28;20039;-77
2021/06/06 09:41:58;;;;;;;19.45;14.68;;;;;;;;;;5062635;28;20410;-76
2021/06/06 09:44:29;;;;;;;18.33;14.02;;;;;;;;;;5073984;28;20071;-77
2021/06/06 09:47:04;;;;;;;21.50;14.73;;;;;;;;;;5073949;28;20043;-76
2021/06/06 09:49:50;;;;;;;20.35;14.50;;;;;;;;;;5073626;28;20033;-76
2021/06/06 09:52:21;;;;;;;19.70;13.63;;;;;;;;;;5073977;28;20555;-80
2021/06/06 09:54:53;;;;;;;20.20;13.70;;;;;;;;;;5076273;28;20474;-78
2021/06/06 09:57:30;;;;;;;22.17;13.50;;;;;;;;;;5072220;28;20032;-77
2021/06/06 10:00:11;;;;;;;15.98;11.55;;;;;;;;;;5072548;28;20039;-76
2021/06/06 10:02:48;;;;;;;18.85;11.35;;;;;;;;;;5073480;28;20040;-76
2021/06/06 10:05:23;;;;;;;18.15;12.10;;;;;;;;;;5073529;28;20037;-78
2021/06/06 10:08:00;;;;;;;16.20;10.02;;;;;;;;;;5064785;28;20033;-77
2021/06/06 10:10:33;;;;;;;15.48;10.95;;;;;;;;;;5036410;28;20041;-76
2021/06/06 10:13:02;;;;;;;14.45;10.55;;;;;;;;;;5033647;28;20372;-76
2021/06/06 10:15:43;;;;;;;15.30;10.20;;;;;;;;;;5032683;28;20033;-76
2021/06/06 10:18:25;;;;;;;13.00;9.63;;;;;;;;;;5033418;28;20044;-77
2021/06/06 10:21:03;;;;;;;13.23;9.73;;;;;;;;;;5037312;28;20036;-77
2021/06/06 10:23:38;;;;;;;10.85;7.63;;;;;;;;;;5047402;28;20482;-77
2021/06/06 10:26:11;;;;;;;11.33;8.03;;;;;;;;;;5021822;28;20037;-77
2021/06/06 10:28:40;;;;;;;12.48;8.80;;;;;;;;;;5032062;28;20320;-77
2021/06/06 10:31:34;;;;;;;10.77;8.43;;;;;;;;;;5033699;28;20033;-76
2021/06/06 10:34:02;;;;;;;13.43;8.50;;;;;;;;;;5032582;28;20098;-77
2021/06/06 10:36:31;;;;;;;11.98;8.18;;;;;;;;;;5032202;28;20036;-77
2021/06/06 10:38:57;;;;;;;10.73;6.90;;;;;;;;;;5033413;28;20438;-77
2021/06/06 10:41:27;;;;;;;9.88;7.50;;;;;;;;;;5033452;28;20037;-77
2021/06/06 10:43:59;;;;;;;8.90;6.25;;;;;;;;;;5033232;28;20388;-77
2021/06/06 10:46:42;;;;;;;9.98;7.07;;;;;;;;;;5033622;28;20484;-79
2021/06/06 10:49:19;;;;;;;7.70;6.07;;;;;;;;;;5033588;28;20384;-77
2021/06/06 10:52:04;;;;;;;11.18;7.38;;;;;;;;;;5033360;28;20034;-78
2021/06/06 10:54:42;;;;;;;10.30;7.45;;;;;;;;;;5040544;28;20072;-77
2021/06/06 10:57:25;;;;;;;12.18;8.73;;;;;;;;;;5051615;28;20087;-77
2021/06/06 10:59:54;;;;;;;10.25;6.90;;;;;;;;;;5053104;28;20123;-77
2021/06/06 11:02:37;;;;;;;10.18;6.55;;;;;;;;;;5055742;28;20087;-78
2021/06/06 11:05:22;;;;;;;9.27;6.80;;;;;;;;;;5057151;28;20124;-77
2021/06/06 11:07:47;;;;;;;11.07;6.93;;;;;;;;;;5056969;28;20041;-76
2021/06/06 11:10:16;;;;;;;9.60;7.50;;;;;;;;;;5056870;28;20056;-77
2021/06/06 11:12:42;;;;;;;11.65;7.28;;;;;;;;;;5056032;28;20151;-76
2021/06/06 11:15:29;;;;;;;10.00;7.38;;;;;;;;;;5056804;28;20044;-76
2021/06/06 11:18:10;;;;;;;7.78;6.25;;;;;;;;;;5056896;28;20483;-77
2021/06/06 11:21:07;;;;;;;7.88;6.07;;;;;;;;;;5056925;28;20132;-77
2021/06/06 11:23:37;;;;;;;8.13;6.10;;;;;;;;;;5055051;28;20053;-77
2021/06/06 11:26:22;;;;;;;8.88;6.78;;;;;;;;;;5056909;28;20041;-77
2021/06/06 11:28:51;;;;;;;14.13;6.40;;;;;;;;;;5056662;28;20041;-77
2021/06/06 11:31:31;;;;;;;8.00;6.22;;;;;;;;;;5055773;28;20037;-77
2021/06/06 11:34:21;;;;;;;11.43;7.47;;;;;;;;;;5055989;28;20048;-77
2021/06/06 11:36:46;;;;;;;9.52;5.95;;;;;;;;;;5055193;28;20088;-78
2021/06/06 11:39:14;;;;;;;9.23;6.82;;;;;;;;;;5038555;28;20060;-77
2021/06/06 11:41:43;;;;;;;9.25;6.22;;;;;;;;;;5060437;28;20036;-77
2021/06/06 11:44:30;;;;;;;9.15;6.38;;;;;;;;;;5076299;28;20028;-77
2021/06/06 11:47:29;;;;;;;11.52;6.30;;;;;;;;;;5075132;28;20032;-77
2021/06/06 11:50:02;;;;;;;8.90;5.55;;;;;;;;;;5064081;28;20139;-77
2021/06/06 11:52:34;;;;;;;7.30;5.53;;;;;;;;;;5071124;28;20114;-78
2021/06/06 11:55:05;;;;;;;7.03;5.60;;;;;;;;;;5054984;28;20037;-77
2021/06/06 11:57:36;;;;;;;7.22;5.60;;;;;;;;;;5054965;28;20037;-77
2021/06/06 12:00:10;;;;;;;7.45;5.82;;;;;;;;;;5056049;28;20032;-77
2021/06/06 12:02:39;;;;;;;9.27;5.40;;;;;;;;;;5056881;28;20041;-76
2021/06/06 12:05:19;;;;;;;8.95;6.10;;;;;;;;;;5057356;28;20076;-76
2021/06/06 12:07:45;;;;;;;9.02;6.10;;;;;;;;;;5035895;28;20092;-75
2021/06/06 12:10:28;;;;;;;6.43;5.25;;;;;;;;;;5036594;28;20025;-76
2021/06/06 12:12:58;;;;;;;11.57;7.13;;;;;;;;;;5052373;28;20067;-75
2021/06/06 12:15:28;;;;;;;7.80;6.50;;;;;;;;;;5055016;28;20107;-77
2021/06/06 12:18:09;;;;;;;9.70;7.22;;;;;;;;;;5054685;28;20037;-76
2021/06/06 12:20:48;;;;;;;8.52;6.65;;;;;;;;;;5055843;28;20044;-77
2021/06/06 12:23:14;;;;;;;8.70;6.70;;;;;;;;;;5054221;28;20029;-75
2021/06/06 12:25:39;;;;;;;8.75;6.47;;;;;;;;;;5056664;28;20104;-75
2021/06/06 12:28:18;;;;;;;11.85;6.63;;;;;;;;;;5055995;28;20379;-75
2021/06/06 12:30:46;;;;;;;10.45;7.03;;;;;;;;;;5059544;28;20378;-77
2021/06/06 12:33:19;;;;;;;10.25;6.07;;;;;;;;;;5060207;28;20037;-77
2021/06/06 12:35:54;;;;;;;7.88;6.45;;;;;;;;;;5053772;28;20043;-77
2021/06/06 12:38:22;;;;;;;11.27;7.20;;;;;;;;;;5059252;28;20047;-78
2021/06/06 12:40:49;;;;;;;10.20;6.18;;;;;;;;;;5058777;28;20469;-76
2021/06/06 12:43:18;;;;;;;8.23;6.15;;;;;;;;;;5057788;28;20434;-77
2021/06/06 12:45:46;;;;;;;8.85;6.20;;;;;;;;;;5058010;28;20099;-76
2021/06/06 12:48:23;;;;;;;8.82;6.90;;;;;;;;;;5048985;28;20037;-77
2021/06/06 12:50:53;;;;;;;11.50;7.47;;;;;;;;;;5035969;28;20045;-77
2021/06/06 12:53:28;;;;;;;10.68;6.88;;;;;;;;;;5027428;28;20060;-76
2021/06/06 12:56:12;;;;;;;12.50;7.63;;;;;;;;;;5037495;28;20044;-77
2021/06/06 12:58:39;;;;;;;9.60;7.53;;;;;;;;;;5026548;28;20037;-77
2021/06/06 13:01:12;;;;;;;8.15;6.75;;;;;;;;;;5046521;28;20044;-76
2021/06/06 13:03:45;;;;;;;11.07;7.45;;;;;;;;;;5034130;28;20048;-77
2021/06/06 13:06:19;;;;;;;10.10;7.43;;;;;;;;;;5044688;28;20033;-77
2021/06/06 13:08:45;;;;;;;11.65;7.88;;;;;;;;;;5045135;28;20040;-78
2021/06/06 13:11:15;;;;;;;10.45;7.90;;;;;;;;;;5041365;28;20045;-77
2021/06/06 13:13:44;;;;;;;13.13;7.90;;;;;;;;;;5043169;28;20123;-79
2021/06/06 13:16:17;;;;;;;10.95;8.68;;;;;;;;;;5054608;28;20116;-76
2021/06/06 13:18:59;;;;;;;8.68;7.25;;;;;;;;;;5054453;28;20033;-77
2021/06/06 13:21:28;;;;;;;12.45;7.88;;;;;;;;;;5036741;28;20041;-77
2021/06/06 13:24:09;;;;;;;10.80;8.77;;;;;;;;;;5053057;28;20087;-77
2021/06/06 13:26:38;;;;;;;9.73;8.10;;;;;;;;;;5048853;28;20072;-77
2021/06/06 13:29:07;;;;;;;13.15;8.70;;;;;;;;;;5043202;28;20041;-77
2021/06/06 13:31:53;;;;;;;8.48;6.82;;;;;;;;;;5047514;28;20064;-76
2021/06/06 13:34:20;;;;;;;11.07;8.30;;;;;;;;;;5045598;28;20018;-77
2021/06/06 13:36:46;;;;;;;10.23;8.20;;;;;;;;;;5041447;28;20043;-76
2021/06/06 13:39:14;;;;;;;9.73;8.15;;;;;;;;;;5043861;28;20028;-76
2021/06/06 13:41:40;;;;;;;11.10;7.70;;;;;;;;;;5040166;28;20033;-77
2021/06/06 13:44:06;;;;;;;10.93;8.95;;;;;;;;;;5045309;28;20112;-77
2021/06/06 13:46:31;;;;;;;9.43;7.80;;;;;;;;;;5045256;28;20056;-76
2021/06/06 13:48:56;;;;;;;11.73;7.75;;;;;;;;;;5042730;28;20474;-77
2021/06/06 13:51:22;;;;;;;12.35;8.30;;;;;;;;;;5051127;28;20410;-76
2021/06/06 13:53:47;;;;;;;11.00;7.90;;;;;;;;;;5037805;28;20044;-78
2021/06/06 13:56:13;;;;;;;10.35;8.35;;;;;;;;;;5047408;28;20045;-76
2021/06/06 13:58:39;;;;;;;10.77;8.38;;;;;;;;;;5041678;28;20040;-77
2021/06/06 14:01:05;;;;;;;11.73;8.43;;;;;;;;;;5041913;28;20038;-76
2021/06/06 14:03:41;;;;;;;11.90;8.90;;;;;;;;;;5041292;28;20040;-76
2021/06/06 14:06:10;;;;;;;11.90;8.40;;;;;;;;;;5046226;28;20055;-77
2021/06/06 14:08:35;;;;;;;8.40;7.43;;;;;;;;;;5043159;28;20037;-77
2021/06/06 14:11:06;;;;;;;9.13;7.72;;;;;;;;;;5045309;28;20320;-77
2021/06/06 14:13:34;;;;;;;11.57;8.60;;;;;;;;;;5035667;28;20032;-77
2021/06/06 14:16:14;;;;;;;10.55;8.30;;;;;;;;;;5039752;28;20033;-76
2021/06/06 14:18:40;;;;;;;10.50;8.00;;;;;;;;;;5040006;28;20035;-77
2021/06/06 14:21:07;;;;;;;10.02;8.38;;;;;;;;;;5033784;28;20044;-76
2021/06/06 14:23:33;;;;;;;9.68;8.55;;;;;;;;;;5033357;28;20034;-76
2021/06/06 14:25:59;;;;;;;11.63;8.45;;;;;;;;;;5033649;28;20037;-78
2021/06/06 14:28:25;;;;;;;10.32;8.05;;;;;;;;;;5033351;28;20048;-76
2021/06/06 14:30:52;;;;;;;8.77;7.88;;;;;;;;;;5033674;28;20040;-76
2021/06/06 14:33:23;;;;;;;11.07;9.18;;;;;;;;;;5033501;28;20030;-76
2021/06/06 14:35:55;;;;;;;10.07;8.90;;;;;;;;;;5033197;28;20084;-77
2021/06/06 14:38:25;;;;;;;11.55;9.15;;;;;;;;;;5033334;28;20467;-78
2021/06/06 14:40:51;;;;;;;10.85;8.88;;;;;;;;;;5033255;28;20029;-77
2021/06/06 14:43:18;;;;;;;14.30;10.45;;;;;;;;;;5031938;28;20411;-77
2021/06/06 14:45:45;;;;;;;11.98;9.60;;;;;;;;;;5033465;28;20539;-77